Aérodrome :
LOGIN :

S'inscrire | Disclaimer

   EN    FR    IT 

 










Légende :    VFR   VFR Marginal   IFR   IFR Intensif   IFR Très Intensif
Visi : 
Plafond : 
>= 8 km
>= 3000ft
5 à 8 km
1000 à 3000 ft
1500m à 5 km
500 à 1000 ft
800 à 1500m
200 à 500 ft
< 800m
< 200 ft
Symboles :   Orages  Brouillard  Fortes neiges  Fortes précipitations  Vent > 20 kt
SIGMETs :   Divers  Orages  Givrage  Turbulence  Onde Orograph.  Cendres Volcan.







- Altitude de l'aérodrome : 308 ft
- Code IATA : POZ


EPPO - Poznan-Lawica

DERNIER METAR :
  • 161200Z 22008KT CAVOK 13/02 Q1026 R10/29//95

METARs EXPIRÉS :
  • 161130Z 19007KT CAVOK 11/02 Q1026 R10/29//95
  • 161100Z 22008KT CAVOK 10/01 Q1027 R10/29//95
  • 161030Z 20008KT CAVOK 08/01 Q1027 R10/29//95
  • 161000Z 20006KT CAVOK 07/01 Q1027 R10/29//95
  • 160930Z 18005KT 8000 NSC 05/01 Q1028 R10/29//95
  • 160900Z 17005KT 6000 NSC 03/01 Q1028 R10/29//95

TAF TAF EPPO
Valide du 16 à 12h jusqu'au 17 à 12h UTC


161130Z 1612/1712 21010KT CAVOK
BECMG 1619/1622 27005KT
BECMG 1703/1706 2000 BR BKN005
BECMG 1706/1709 1200 BR OVC002
Pas de NOTAMs connus pour ce terrain.



MET'MAP, la Météo Aéronautique d'un coup d'oeil ! - Copyright ORBIFLY Décembre 2007 - Disclaimer

ORBIFLY MET'MAP TEAM :

Programmation & Développement : Alexandra Zaïnal
Conception & Développement : Baudouin d'Aumeries
Co-Programmation & Développement : Marc-Olivier Méhu
Soutien technique & logistique : Manuel Goepfert

Contact : metmap@orbifly.com




SOURCES & CREDITS :

   NOAA